createdAt,value
2022-12-26T00:02:36.432Z,61.56
2022-12-26T00:06:36.888Z,61.58
2022-12-26T00:10:36.932Z,61.52
2022-12-26T00:14:37.076Z,61.66
2022-12-26T00:18:39.990Z,62.60
2022-12-26T00:22:40.039Z,63.39
2022-12-26T00:26:40.713Z,63.84
2022-12-26T00:30:41.214Z,63.57
2022-12-26T00:34:44.005Z,63.27
2022-12-26T00:38:45.957Z,62.81
2022-12-26T00:42:46.176Z,62.80
2022-12-26T00:46:46.302Z,62.65
2022-12-26T00:50:49.076Z,62.44
2022-12-26T00:54:49.150Z,63.18
2022-12-26T00:58:49.216Z,63.33
2022-12-26T01:02:49.545Z,62.71
2022-12-26T01:06:52.398Z,62.58
2022-12-26T01:10:52.746Z,63.02
2022-12-26T01:14:52.792Z,63.17
2022-12-26T01:18:52.863Z,62.74
2022-12-26T01:22:55.567Z,62.82
2022-12-26T01:26:55.626Z,62.20
2022-12-26T01:30:55.757Z,62.51
2022-12-26T01:34:56.417Z,62.23
2022-12-26T01:38:59.142Z,62.03
2022-12-26T01:43:00.440Z,61.78
2022-12-26T01:47:01.346Z,61.69
2022-12-26T01:51:06.890Z,62.66
2022-12-26T01:55:14.841Z,62.98
2022-12-26T01:59:20.730Z,63.57
2022-12-26T02:03:33.639Z,62.88
2022-12-26T02:07:37.366Z,63.07
2022-12-26T02:11:45.812Z,63.15
2022-12-26T02:15:47.428Z,62.84
2022-12-26T02:20:00.745Z,62.35
2022-12-26T02:24:33.489Z,62.35
2022-12-26T02:29:06.898Z,62.61
2022-12-26T02:33:51.508Z,62.81
2022-12-26T02:38:11.000Z,62.56
2022-12-26T02:42:31.409Z,62.21
2022-12-26T02:46:54.813Z,62.55
2022-12-26T02:51:26.360Z,63.04
2022-12-26T02:55:44.915Z,62.89
2022-12-26T03:00:09.495Z,62.90
2022-12-26T03:04:29.337Z,63.12
2022-12-26T03:09:02.826Z,62.94
2022-12-26T03:13:13.628Z,61.92
2022-12-26T03:17:27.121Z,62.61
2022-12-26T03:21:33.609Z,62.89
2022-12-26T03:25:58.069Z,62.92
2022-12-26T03:30:11.216Z,62.84
2022-12-26T03:34:20.489Z,62.75
2022-12-26T03:38:29.102Z,62.56
2022-12-26T03:42:57.026Z,62.76
2022-12-26T03:47:28.866Z,62.72
2022-12-26T03:51:53.474Z,62.59
2022-12-26T03:56:14.413Z,62.30
2022-12-26T04:00:45.943Z,62.52
2022-12-26T04:05:01.489Z,62.64
2022-12-26T04:09:26.253Z,62.33
2022-12-26T04:13:45.776Z,62.29
2022-12-26T04:18:17.656Z,63.01
2022-12-26T04:22:42.952Z,62.90
2022-12-26T04:27:00.831Z,62.58
2022-12-26T04:31:24.649Z,62.29
2022-12-26T04:35:50.058Z,62.67
2022-12-26T04:40:08.980Z,62.51
2022-12-26T04:44:12.015Z,62.24
2022-12-26T04:48:26.283Z,62.26
2022-12-26T04:52:49.090Z,62.45
2022-12-26T04:56:49.250Z,63.20
2022-12-26T05:00:49.312Z,62.95
2022-12-26T05:05:02.074Z,63.25
2022-12-26T05:09:17.230Z,62.78
2022-12-26T05:13:17.375Z,62.61
2022-12-26T05:17:30.263Z,62.66
2022-12-26T05:21:42.909Z,62.96
2022-12-26T05:26:01.342Z,63.27
2022-12-26T05:30:01.630Z,62.94
2022-12-26T05:34:12.290Z,62.80
2022-12-26T05:38:13.690Z,63.01
2022-12-26T05:42:16.432Z,63.17
2022-12-26T05:46:16.679Z,63.51
2022-12-26T05:50:16.943Z,64.38
2022-12-26T05:54:16.989Z,64.54
2022-12-26T05:58:19.786Z,64.27
2022-12-26T06:02:20.041Z,64.49
2022-12-26T06:06:22.339Z,64.67
2022-12-26T06:10:22.543Z,64.74
2022-12-26T06:14:25.706Z,64.36
2022-12-26T06:18:25.897Z,63.79
2022-12-26T06:22:26.233Z,64.04
2022-12-26T06:26:26.371Z,64.42
2022-12-26T06:30:29.127Z,64.05
2022-12-26T06:34:29.285Z,63.40
2022-12-26T06:38:29.508Z,62.53
2022-12-26T06:42:29.565Z,62.55
2022-12-26T06:46:32.374Z,62.20
2022-12-26T06:50:32.530Z,61.69
2022-12-26T06:54:33.370Z,61.45
2022-12-26T06:58:33.452Z,60.77
2022-12-26T07:02:36.209Z,61.18
2022-12-26T07:06:39.347Z,61.36
2022-12-26T07:10:40.166Z,61.10
2022-12-26T07:14:40.426Z,61.14
2022-12-26T07:18:44.641Z,61.21
2022-12-26T07:22:44.916Z,61.17
2022-12-26T07:26:45.559Z,61.42
2022-12-26T07:30:50.206Z,61.40
2022-12-26T07:34:53.262Z,61.10
2022-12-26T07:38:53.396Z,61.27
2022-12-26T07:42:56.800Z,61.04
2022-12-26T07:46:58.140Z,61.30
2022-12-26T07:51:04.903Z,61.87
2022-12-26T07:55:05.044Z,61.25
2022-12-26T07:59:05.301Z,61.22
2022-12-26T08:03:08.037Z,61.38
2022-12-26T08:07:11.270Z,61.46
2022-12-26T08:11:18.154Z,61.85
2022-12-26T08:15:18.466Z,62.48
2022-12-26T08:19:18.725Z,62.79
2022-12-26T08:23:21.791Z,62.89
2022-12-26T08:27:21.945Z,64.26
2022-12-26T08:35:44.169Z,64.70
2022-12-26T08:39:47.504Z,64.81
2022-12-26T08:48:11.862Z,63.22
2022-12-26T08:52:12.032Z,62.90
2022-12-26T08:56:18.293Z,62.81
2022-12-26T09:00:23.971Z,62.35
2022-12-26T09:04:25.290Z,62.36
2022-12-26T09:08:25.381Z,61.40
2022-12-26T09:12:28.496Z,61.78
2022-12-26T09:16:37.793Z,61.68
2022-12-26T09:20:39.392Z,61.59
2022-12-26T09:24:39.692Z,60.73
2022-12-26T09:28:43.151Z,60.83
2022-12-26T09:32:44.310Z,60.91
2022-12-26T09:36:44.438Z,60.46
2022-12-26T09:41:05.409Z,60.73
2022-12-26T09:45:17.016Z,60.30
2022-12-26T09:49:22.971Z,60.21
2022-12-26T09:53:34.645Z,59.39
2022-12-26T09:57:45.303Z,59.60
2022-12-26T10:01:49.232Z,59.79
2022-12-26T10:06:09.594Z,60.57
2022-12-26T10:10:14.824Z,60.56
2022-12-26T10:14:25.458Z,60.31
2022-12-26T10:18:41.791Z,61.37
2022-12-26T10:23:19.448Z,61.41
2022-12-26T10:27:23.153Z,61.86
2022-12-26T10:31:31.221Z,62.49
2022-12-26T10:35:40.384Z,63.48
2022-12-26T10:39:49.175Z,63.09
2022-12-26T10:43:49.357Z,63.36
2022-12-26T10:47:53.567Z,63.84
2022-12-26T10:51:59.671Z,63.96
2022-12-26T10:56:03.463Z,64.29
2022-12-26T11:00:05.545Z,64.45
2022-12-26T11:04:08.855Z,66.07
2022-12-26T11:08:22.663Z,65.19
2022-12-26T11:12:30.001Z,66.21
2022-12-26T11:16:34.449Z,65.14
2022-12-26T11:20:35.107Z,64.49
2022-12-26T11:24:37.881Z,64.48
2022-12-26T11:28:40.093Z,64.10
2022-12-26T11:32:40.543Z,64.74
2022-12-26T11:36:50.930Z,65.22
2022-12-26T11:41:13.684Z,65.02
2022-12-26T11:45:15.421Z,66.00
2022-12-26T11:49:33.733Z,65.76
2022-12-26T11:53:34.959Z,65.27
2022-12-26T11:57:37.706Z,64.62
2022-12-26T12:01:37.929Z,64.92
2022-12-26T12:05:53.608Z,64.23
2022-12-26T12:10:02.596Z,64.80
2022-12-26T12:14:35.795Z,64.71
2022-12-26T12:18:54.245Z,64.44
2022-12-26T12:23:21.921Z,64.30
2022-12-26T12:27:32.398Z,64.38
2022-12-26T12:31:52.249Z,63.43
2022-12-26T12:36:09.018Z,63.83
2022-12-26T12:40:31.842Z,63.72
2022-12-26T12:44:55.706Z,64.42
2022-12-26T12:49:37.533Z,63.60
2022-12-26T12:54:29.459Z,64.20
2022-12-26T12:58:41.883Z,64.62
2022-12-26T13:02:48.518Z,63.90
2022-12-26T13:06:57.877Z,64.93
2022-12-26T13:11:05.845Z,65.18
2022-12-26T13:15:20.855Z,64.67
2022-12-26T13:19:25.952Z,64.34
2022-12-26T13:23:50.950Z,64.25
2022-12-26T13:27:56.171Z,63.97
2022-12-26T13:31:56.496Z,64.10
2022-12-26T13:36:01.624Z,63.47
2022-12-26T13:40:09.787Z,63.76
2022-12-26T13:44:28.682Z,64.07
2022-12-26T13:49:04.567Z,62.33
2022-12-26T13:53:06.592Z,62.40
2022-12-26T13:57:40.295Z,63.48
2022-12-26T14:01:56.293Z,63.04
2022-12-26T14:06:25.680Z,63.43
2022-12-26T14:10:40.485Z,63.46
2022-12-26T14:15:03.556Z,63.30
2022-12-26T14:19:19.930Z,63.83
2022-12-26T14:23:46.977Z,64.87
2022-12-26T14:27:54.861Z,65.76
2022-12-26T14:32:31.340Z,66.20
2022-12-26T14:36:45.441Z,66.24
2022-12-26T14:41:04.719Z,66.18
2022-12-26T14:45:12.638Z,65.92
2022-12-26T14:49:39.250Z,65.69
2022-12-26T14:53:41.168Z,65.89
2022-12-26T14:57:51.926Z,65.62
2022-12-26T15:02:11.368Z,65.74
2022-12-26T15:06:59.224Z,66.39
2022-12-26T15:12:04.944Z,65.67
2022-12-26T15:16:49.621Z,66.89
2022-12-26T15:21:31.882Z,66.36
2022-12-26T15:26:11.742Z,65.81
2022-12-26T15:30:23.754Z,65.82
2022-12-26T15:34:57.307Z,66.38
2022-12-26T15:39:08.691Z,65.74
2022-12-26T15:43:44.769Z,66.60
2022-12-26T15:47:57.325Z,66.68
2022-12-26T15:52:13.512Z,66.83
2022-12-26T15:56:52.071Z,67.00
2022-12-26T16:00:55.453Z,66.77
2022-12-26T16:05:01.354Z,67.10
2022-12-26T16:09:30.229Z,66.75
2022-12-26T16:13:34.067Z,65.99
2022-12-26T16:17:34.724Z,66.58
2022-12-26T16:21:47.420Z,65.68
2022-12-26T16:25:51.291Z,65.66
2022-12-26T16:30:00.184Z,66.19
2022-12-26T16:34:02.632Z,64.68
2022-12-26T16:38:06.733Z,66.11
2022-12-26T16:42:10.233Z,65.82
2022-12-26T16:46:18.340Z,66.13
2022-12-26T16:50:22.477Z,65.62
2022-12-26T16:54:33.181Z,65.64
2022-12-26T16:58:39.607Z,65.01
2022-12-26T17:02:50.263Z,65.21
2022-12-26T17:06:55.602Z,65.22
2022-12-26T17:10:56.490Z,64.68
2022-12-26T17:14:59.762Z,64.43
2022-12-26T17:19:20.578Z,63.75
2022-12-26T17:23:39.951Z,65.08
2022-12-26T17:27:40.073Z,64.39
2022-12-26T17:31:44.423Z,64.74
2022-12-26T17:40:29.316Z,64.36
2022-12-26T17:44:42.493Z,65.84
2022-12-26T17:48:43.213Z,65.72
2022-12-26T17:52:46.119Z,65.70
2022-12-26T17:56:46.175Z,66.08
2022-12-26T18:00:48.055Z,66.99
2022-12-26T18:04:48.985Z,66.16
2022-12-26T18:08:51.772Z,66.44
2022-12-26T18:12:52.656Z,66.39
2022-12-26T18:16:55.015Z,66.16
2022-12-26T18:20:55.664Z,66.83
2022-12-26T18:24:58.438Z,66.46
2022-12-26T18:28:59.114Z,65.51
2022-12-26T18:32:59.261Z,65.03
2022-12-26T18:36:59.300Z,65.54
2022-12-26T18:41:02.485Z,65.30
2022-12-26T18:45:02.574Z,65.87
2022-12-26T18:49:02.722Z,64.87
2022-12-26T18:53:02.870Z,64.66
2022-12-26T18:57:06.862Z,64.40
2022-12-26T19:01:07.644Z,64.26
2022-12-26T19:05:10.075Z,64.14
2022-12-26T19:09:11.623Z,65.48
2022-12-26T19:13:15.341Z,64.63
2022-12-26T19:17:15.609Z,65.90
2022-12-26T19:21:16.939Z,65.50
2022-12-26T19:25:18.922Z,65.43
2022-12-26T19:29:21.667Z,64.68
2022-12-26T19:33:22.383Z,65.06
2022-12-26T19:37:22.602Z,65.79
2022-12-26T19:41:23.210Z,64.67
2022-12-26T19:45:26.055Z,64.76
2022-12-26T19:49:31.882Z,66.19
2022-12-26T19:53:34.014Z,65.94
2022-12-26T19:57:34.785Z,63.69
2022-12-26T20:01:37.701Z,63.33
2022-12-26T20:05:41.384Z,62.85
2022-12-26T20:09:41.801Z,62.59
2022-12-26T20:13:42.708Z,64.51
2022-12-26T20:17:45.420Z,64.94
2022-12-26T20:21:45.536Z,63.85
2022-12-26T20:25:46.923Z,63.32
2022-12-26T20:29:47.396Z,63.13
2022-12-26T20:33:54.059Z,62.83
2022-12-26T20:37:54.679Z,62.29
2022-12-26T20:41:54.833Z,62.00
2022-12-26T20:45:55.703Z,63.19
2022-12-26T20:49:58.428Z,62.94
2022-12-26T20:53:58.587Z,63.95
2022-12-26T20:57:58.656Z,63.64
2022-12-26T21:01:58.850Z,63.72
2022-12-26T21:06:09.754Z,63.71
2022-12-26T21:10:12.916Z,63.00
2022-12-26T21:14:17.998Z,63.30
2022-12-26T21:18:18.081Z,63.26
2022-12-26T21:22:20.774Z,62.99
2022-12-26T21:26:20.794Z,63.15
2022-12-26T21:30:20.960Z,62.99
2022-12-26T21:34:24.524Z,63.28
2022-12-26T21:38:32.346Z,62.88
2022-12-26T21:42:32.483Z,63.10
2022-12-26T21:46:32.649Z,62.72
2022-12-26T21:50:32.827Z,62.54
2022-12-26T21:54:49.397Z,62.98
2022-12-26T21:59:07.819Z,62.87
2022-12-26T22:03:20.956Z,62.42
2022-12-26T22:07:21.066Z,63.33
2022-12-26T22:11:36.205Z,63.80
2022-12-26T22:15:49.267Z,63.38
2022-12-26T22:19:49.400Z,63.16
2022-12-26T22:23:51.445Z,63.16
2022-12-26T22:27:54.197Z,62.74
2022-12-26T22:31:58.391Z,62.74
2022-12-26T22:36:05.618Z,62.08
2022-12-26T22:40:05.995Z,62.78
2022-12-26T22:44:08.820Z,62.76
2022-12-26T22:48:09.418Z,62.01
2022-12-26T22:52:15.507Z,63.17
2022-12-26T22:56:16.486Z,63.30
2022-12-26T23:00:19.937Z,62.50
2022-12-26T23:04:20.737Z,63.04
2022-12-26T23:08:25.291Z,62.52
2022-12-26T23:12:38.809Z,61.21
2022-12-26T23:16:53.144Z,62.42
2022-12-26T23:21:07.547Z,62.67
2022-12-26T23:25:08.629Z,62.47
2022-12-26T23:29:21.334Z,61.42
2022-12-26T23:33:24.007Z,61.61
2022-12-26T23:37:24.066Z,62.30
2022-12-26T23:41:24.137Z,62.12
2022-12-26T23:45:24.242Z,62.05
2022-12-26T23:49:26.965Z,61.51
2022-12-26T23:53:27.018Z,61.57
2022-12-26T23:57:27.221Z,63.26
